createdAt,value
2019-04-06T00:00:48.126Z,9.40
2019-04-06T00:03:16.783Z,9.40
2019-04-06T00:05:45.477Z,9.30
2019-04-06T00:08:14.213Z,9.30
2019-04-06T00:10:42.924Z,9.40
2019-04-06T00:13:11.586Z,9.50
2019-04-06T00:15:40.251Z,9.40
2019-04-06T00:18:09.311Z,9.50
2019-04-06T00:20:37.972Z,9.50
2019-04-06T00:23:06.639Z,9.50
2019-04-06T00:25:43.804Z,9.50
2019-04-06T00:28:06.187Z,9.50
2019-04-06T00:30:42.573Z,9.60
2019-04-06T00:33:13.922Z,9.60
2019-04-06T00:35:42.588Z,9.50
2019-04-06T00:38:11.258Z,9.50
2019-04-06T00:40:40.002Z,9.40
2019-04-06T00:43:09.128Z,9.50
2019-04-06T00:45:37.828Z,9.50
2019-04-06T00:48:06.504Z,9.40
2019-04-06T00:50:35.152Z,9.30
2019-04-06T00:53:03.889Z,9.20
2019-04-06T00:55:32.605Z,9.20
2019-04-06T00:58:01.261Z,9.20
2019-04-06T01:00:29.946Z,9.20
2019-04-06T01:02:58.620Z,9.10
2019-04-06T01:05:27.629Z,9.10
2019-04-06T01:07:56.270Z,9.20
2019-04-06T01:10:24.940Z,9.20
2019-04-06T01:12:53.618Z,9.20
2019-04-06T01:15:22.329Z,9.30
2019-04-06T01:17:50.996Z,9.30
2019-04-06T01:20:19.740Z,9.40
2019-04-06T01:22:48.385Z,9.20
2019-04-06T01:25:17.072Z,9.20
2019-04-06T01:27:45.743Z,9.20
2019-04-06T01:30:14.713Z,9.00
2019-04-06T01:32:43.342Z,8.90
2019-04-06T01:35:12.008Z,9.00
2019-04-06T01:37:41.058Z,9.10
2019-04-06T01:40:10.097Z,9.10
2019-04-06T01:42:38.779Z,9.10
2019-04-06T01:45:07.776Z,9.20
2019-04-06T01:47:36.464Z,9.10
2019-04-06T01:50:05.591Z,9.10
2019-04-06T01:52:34.338Z,9.10
2019-04-06T01:55:03.043Z,9.10
2019-04-06T01:57:31.719Z,9.10
2019-04-06T02:00:00.500Z,9.10
2019-04-06T02:02:39.282Z,9.10
2019-04-06T02:05:08.150Z,9.00
2019-04-06T02:07:36.809Z,9.00
2019-04-06T02:10:06.126Z,8.90
2019-04-06T02:12:34.917Z,9.00
2019-04-06T02:15:04.077Z,9.00
2019-04-06T02:17:32.863Z,9.00
2019-04-06T02:20:01.517Z,9.10
2019-04-06T02:22:30.172Z,8.90
2019-04-06T02:24:58.868Z,9.00
2019-04-06T02:27:27.574Z,9.00
2019-04-06T02:30:20.532Z,9.10
2019-04-06T02:33:00.883Z,9.00
2019-04-06T02:35:50.343Z,8.90
2019-04-06T02:38:30.278Z,9.00
2019-04-06T02:41:06.777Z,9.00
2019-04-06T02:43:35.830Z,9.00
2019-04-06T02:46:04.781Z,9.00
2019-04-06T02:48:33.674Z,9.10
2019-04-06T02:51:02.408Z,9.00
2019-04-06T02:53:31.086Z,9.10
2019-04-06T02:55:59.765Z,9.10
2019-04-06T02:58:28.411Z,9.00
2019-04-06T03:00:57.046Z,9.10
2019-04-06T03:03:25.938Z,9.00
2019-04-06T03:05:55.061Z,9.00
2019-04-06T03:08:23.870Z,9.00
2019-04-06T03:10:52.690Z,9.10
2019-04-06T03:13:21.359Z,8.90
2019-04-06T03:15:50.140Z,8.80
2019-04-06T03:18:18.785Z,8.70
2019-04-06T03:20:47.511Z,8.60
2019-04-06T03:23:16.471Z,8.70
2019-04-06T03:25:45.260Z,8.60
2019-04-06T03:28:13.924Z,8.60
2019-04-06T03:30:42.571Z,8.60
2019-04-06T03:33:12.163Z,8.60
2019-04-06T03:35:46.916Z,8.50
2019-04-06T03:38:11.537Z,8.50
2019-04-06T03:40:40.365Z,8.50
2019-04-06T03:43:09.093Z,8.50
2019-04-06T03:45:37.964Z,8.50
2019-04-06T03:48:06.645Z,8.50
2019-04-06T03:50:35.280Z,8.40
2019-04-06T03:53:04.224Z,8.50
2019-04-06T03:55:32.914Z,8.40
2019-04-06T03:58:01.672Z,8.40
2019-04-06T04:00:30.307Z,8.40
2019-04-06T04:02:59.120Z,8.30
2019-04-06T04:05:27.769Z,8.30
2019-04-06T04:07:56.436Z,8.40
2019-04-06T04:10:36.233Z,8.30
2019-04-06T04:13:05.638Z,8.30
2019-04-06T04:15:34.588Z,8.30
2019-04-06T04:18:03.324Z,8.30
2019-04-06T04:20:32.324Z,8.20
2019-04-06T04:23:01.082Z,8.20
2019-04-06T04:25:29.740Z,8.10
2019-04-06T04:27:59.309Z,8.00
2019-04-06T04:30:33.369Z,8.00
2019-04-06T04:32:58.390Z,7.90
2019-04-06T04:35:27.107Z,7.90
2019-04-06T04:37:56.268Z,7.90
2019-04-06T04:40:25.129Z,7.90
2019-04-06T04:42:53.785Z,7.90
2019-04-06T04:45:22.444Z,7.90
2019-04-06T04:47:51.386Z,7.80
2019-04-06T04:50:20.297Z,7.90
2019-04-06T04:52:49.002Z,7.80
2019-04-06T04:55:17.643Z,7.80
2019-04-06T04:57:46.281Z,7.90
2019-04-06T05:00:15.743Z,7.80
2019-04-06T05:02:44.639Z,7.80
2019-04-06T05:05:13.377Z,7.80
2019-04-06T05:07:42.014Z,7.70
2019-04-06T05:10:11.145Z,7.70
2019-04-06T05:12:39.994Z,7.70
2019-04-06T05:15:10.955Z,7.70
2019-04-06T05:17:39.692Z,7.60
2019-04-06T05:20:09.299Z,7.70
2019-04-06T05:22:38.008Z,7.70
2019-04-06T05:25:07.721Z,7.70
2019-04-06T05:27:36.946Z,7.60
2019-04-06T05:30:07.282Z,7.60
2019-04-06T05:32:36.101Z,7.50
2019-04-06T05:35:05.483Z,7.50
2019-04-06T05:37:34.137Z,7.50
2019-04-06T05:40:02.864Z,7.50
2019-04-06T05:42:31.511Z,7.50
2019-04-06T05:45:00.200Z,7.50
2019-04-06T05:47:48.123Z,7.60
2019-04-06T05:50:36.092Z,7.60
2019-04-06T05:53:24.026Z,7.60
2019-04-06T05:56:11.999Z,7.60
2019-04-06T05:58:59.917Z,7.70
2019-04-06T06:01:48.932Z,7.70
2019-04-06T06:04:40.220Z,7.80
2019-04-06T06:07:27.137Z,7.70
2019-04-06T06:10:15.065Z,7.80
2019-04-06T06:13:02.988Z,7.90
2019-04-06T06:15:50.920Z,7.90
2019-04-06T06:18:39.009Z,7.90
2019-04-06T06:21:28.682Z,8.00
2019-04-06T06:24:18.176Z,8.00
2019-04-06T06:27:06.099Z,8.10
2019-04-06T06:29:54.017Z,8.10
2019-04-06T06:32:41.928Z,8.20
2019-04-06T06:35:29.881Z,8.10
2019-04-06T06:38:17.861Z,8.20
2019-04-06T06:41:05.956Z,8.30
2019-04-06T06:43:46.750Z,8.50
2019-04-06T06:46:27.289Z,8.50
2019-04-06T06:49:07.846Z,8.50
2019-04-06T06:51:48.499Z,8.50
2019-04-06T06:54:29.129Z,8.50
2019-04-06T06:57:09.852Z,8.50
2019-04-06T06:59:51.140Z,8.60
2019-04-06T07:02:31.782Z,8.80
2019-04-06T07:05:12.730Z,8.80
2019-04-06T07:07:53.284Z,8.80
2019-04-06T07:10:34.073Z,8.80
2019-04-06T07:13:14.715Z,8.80
2019-04-06T07:15:55.501Z,9.00
2019-04-06T07:18:36.095Z,9.00
2019-04-06T07:21:17.293Z,9.00
2019-04-06T07:23:57.668Z,9.10
2019-04-06T07:26:41.082Z,9.20
2019-04-06T07:29:21.269Z,9.20
2019-04-06T07:32:01.870Z,9.30
2019-04-06T07:34:42.630Z,9.20
2019-04-06T07:37:23.284Z,9.20
2019-04-06T07:40:03.957Z,9.40
2019-04-06T07:42:44.611Z,9.30
2019-04-06T07:45:25.286Z,9.40
2019-04-06T07:48:05.901Z,9.50
2019-04-06T07:50:46.404Z,9.50
2019-04-06T07:53:27.006Z,9.40
2019-04-06T07:56:07.452Z,9.60
2019-04-06T07:58:49.940Z,9.70
2019-04-06T08:01:30.685Z,9.60
2019-04-06T08:04:11.391Z,9.70
2019-04-06T08:06:52.632Z,9.70
2019-04-06T08:09:33.110Z,9.80
2019-04-06T08:12:13.904Z,9.90
2019-04-06T08:14:57.102Z,10.10
2019-04-06T08:17:37.162Z,10.20
2019-04-06T08:20:17.884Z,10.20
2019-04-06T08:22:58.695Z,10.00
2019-04-06T08:25:39.556Z,10.10
2019-04-06T08:28:20.613Z,10.20
2019-04-06T08:31:01.679Z,10.20
2019-04-06T08:33:42.324Z,10.20
2019-04-06T08:36:22.884Z,10.20
2019-04-06T08:39:05.650Z,10.10
2019-04-06T08:41:44.733Z,10.20
2019-04-06T08:44:32.791Z,10.40
2019-04-06T08:47:20.784Z,10.50
2019-04-06T08:50:09.030Z,10.40
2019-04-06T08:52:56.960Z,10.60
2019-04-06T08:55:44.901Z,10.80
2019-04-06T08:58:32.845Z,10.70
2019-04-06T09:01:20.768Z,10.70
2019-04-06T09:04:08.691Z,10.80
2019-04-06T09:06:56.630Z,11.10
2019-04-06T09:09:44.543Z,11.20
2019-04-06T09:12:32.482Z,11.40
2019-04-06T09:15:20.624Z,11.40
2019-04-06T09:18:10.317Z,11.70
2019-04-06T09:20:58.312Z,11.40
2019-04-06T09:23:46.232Z,11.70
2019-04-06T09:26:34.167Z,11.70
2019-04-06T09:29:24.338Z,11.80
2019-04-06T09:32:11.772Z,11.90
2019-04-06T09:34:59.709Z,12.00
2019-04-06T09:37:47.633Z,12.00
2019-04-06T09:43:27.045Z,12.20
2019-04-06T09:46:26.826Z,12.40
2019-04-06T09:49:25.176Z,12.40
2019-04-06T09:52:27.847Z,12.40
2019-04-06T09:55:18.484Z,12.40
2019-04-06T09:58:11.494Z,12.40
2019-04-06T10:00:58.476Z,12.70
2019-04-06T10:03:53.568Z,12.80
2019-04-06T10:06:40.409Z,12.80
2019-04-06T10:09:40.216Z,12.80
2019-04-06T10:12:44.490Z,12.90
2019-04-06T10:15:46.136Z,13.10
2019-04-06T10:18:45.794Z,13.20
2019-04-06T10:21:45.482Z,13.40
2019-04-06T10:24:45.729Z,13.40
2019-04-06T10:27:46.044Z,13.50
2019-04-06T10:30:40.342Z,13.50
2019-04-06T10:33:33.776Z,13.50
2019-04-06T10:36:27.720Z,13.50
2019-04-06T10:39:27.900Z,13.60
2019-04-06T10:42:19.849Z,13.70
2019-04-06T10:45:13.485Z,13.90
2019-04-06T10:48:13.612Z,13.90
2019-04-06T10:51:13.114Z,14.00
2019-04-06T10:54:06.621Z,14.10
2019-04-06T10:57:06.110Z,14.30
2019-04-06T11:00:02.293Z,14.30
2019-04-06T11:02:56.936Z,14.50
2019-04-06T11:05:57.049Z,14.60
2019-04-06T11:08:49.023Z,14.70
2019-04-06T11:11:48.133Z,14.60
2019-04-06T11:14:49.753Z,14.70
2019-04-06T11:17:49.708Z,15.00
2019-04-06T11:20:49.501Z,15.10
2019-04-06T11:23:55.982Z,15.40
2019-04-06T11:27:00.083Z,15.70
2019-04-06T11:30:13.228Z,15.80
2019-04-06T11:33:07.569Z,15.90
2019-04-06T11:39:23.218Z,16.30
2019-04-06T11:42:25.928Z,16.30
2019-04-06T11:45:14.281Z,17.00
2019-04-06T11:48:11.197Z,18.10
2019-04-06T11:51:14.342Z,19.10
2019-04-06T11:54:13.749Z,19.90
2019-04-06T11:57:16.409Z,19.80
2019-04-06T12:00:07.907Z,20.40
2019-04-06T12:02:59.364Z,21.50
2019-04-06T12:06:01.858Z,21.00
2019-04-06T12:09:01.630Z,21.00
2019-04-06T12:11:48.832Z,21.30
2019-04-06T12:14:36.488Z,21.00
2019-04-06T12:17:26.832Z,20.60
2019-04-06T12:20:27.167Z,20.80
2019-04-06T12:23:19.196Z,20.60
2019-04-06T12:26:19.118Z,21.10
2019-04-06T12:29:25.242Z,21.40
2019-04-06T12:35:17.632Z,21.90
2019-04-06T12:38:19.366Z,23.10
2019-04-06T12:41:19.040Z,23.40
2019-04-06T12:44:15.052Z,21.90
2019-04-06T12:47:12.167Z,22.00
2019-04-06T12:50:07.531Z,22.80
2019-04-06T12:53:13.641Z,24.60
2019-04-06T12:56:10.737Z,25.60
2019-04-06T12:59:10.920Z,24.40
2019-04-06T13:02:10.751Z,23.90
2019-04-06T13:05:02.615Z,24.50
2019-04-06T13:07:52.768Z,24.70
2019-04-06T13:10:40.439Z,25.10
2019-04-06T13:16:17.835Z,25.90
2019-04-06T13:19:18.082Z,27.00
2019-04-06T13:22:19.101Z,25.70
2019-04-06T13:25:07.285Z,26.30
2019-04-06T13:28:08.368Z,28.20
2019-04-06T13:31:08.064Z,29.50
2019-04-06T13:33:54.715Z,30.40
2019-04-06T13:36:56.247Z,29.90
2019-04-06T13:39:56.581Z,28.30
2019-04-06T13:42:53.903Z,28.30
2019-04-06T13:45:41.462Z,28.20
2019-04-06T13:48:44.569Z,26.50
2019-04-06T13:51:43.991Z,26.00
2019-04-06T13:54:52.938Z,26.70
2019-04-06T13:57:52.599Z,26.30
2019-04-06T14:00:58.402Z,27.80
2019-04-06T14:06:23.533Z,28.00
2019-04-06T14:09:26.294Z,27.20
2019-04-06T14:12:29.754Z,27.10
2019-04-06T14:15:33.291Z,26.10
2019-04-06T14:18:39.660Z,26.30
2019-04-06T14:21:40.556Z,25.30
2019-04-06T14:24:40.874Z,24.70
2019-04-06T14:27:40.333Z,26.20
2019-04-06T14:30:45.743Z,25.90
2019-04-06T14:33:45.556Z,25.90
2019-04-06T14:36:40.582Z,26.40
2019-04-06T14:39:38.847Z,25.00
2019-04-06T14:42:39.347Z,25.50
2019-04-06T14:45:39.514Z,24.30
2019-04-06T14:48:38.990Z,24.30
2019-04-06T14:51:24.915Z,24.40
2019-04-06T14:54:30.785Z,23.90
2019-04-06T14:57:30.597Z,24.20
2019-04-06T15:00:17.544Z,24.10
2019-04-06T15:03:18.013Z,25.20
2019-04-06T15:06:17.504Z,25.60
2019-04-06T15:09:08.740Z,25.60
2019-04-06T15:12:08.568Z,26.00
2019-04-06T15:15:08.936Z,26.40
2019-04-06T15:18:08.579Z,26.00
2019-04-06T15:21:11.902Z,25.10
2019-04-06T15:27:16.140Z,25.30
2019-04-06T15:30:15.580Z,24.20
2019-04-06T15:33:15.959Z,24.80
2019-04-06T15:35:57.850Z,25.50
2019-04-06T15:38:46.517Z,24.50
2019-04-06T15:41:27.624Z,23.70
2019-04-06T15:44:27.938Z,23.20
2019-04-06T15:47:27.495Z,23.10
2019-04-06T15:50:17.731Z,23.20
2019-04-06T15:53:13.332Z,23.20
2019-04-06T15:56:03.997Z,23.10
2019-04-06T15:58:56.295Z,23.10
2019-04-06T16:02:01.549Z,22.70
2019-04-06T16:04:51.582Z,23.10
2019-04-06T16:07:52.802Z,22.70
2019-04-06T16:10:52.378Z,22.60
2019-04-06T16:13:54.003Z,22.80
2019-04-06T16:16:51.859Z,23.10
2019-04-06T16:19:39.972Z,23.70
2019-04-06T16:22:45.656Z,23.60
2019-04-06T16:25:32.565Z,23.40
2019-04-06T16:28:19.933Z,23.50
2019-04-06T16:31:23.201Z,22.90
2019-04-06T16:34:14.456Z,23.00
2019-04-06T16:37:12.050Z,22.70
2019-04-06T16:40:01.375Z,22.50
2019-04-06T16:42:56.575Z,22.70
2019-04-06T16:45:56.925Z,22.90
2019-04-06T16:48:58.278Z,22.60
2019-04-06T16:51:58.269Z,22.70
2019-04-06T16:54:49.296Z,22.40
2019-04-06T16:57:52.558Z,22.00
2019-04-06T17:00:57.797Z,21.70
2019-04-06T17:04:00.457Z,21.80
2019-04-06T17:07:00.666Z,21.70
2019-04-06T17:13:06.161Z,21.30
2019-04-06T17:19:11.662Z,20.60
2019-04-06T17:22:11.402Z,20.40
2019-04-06T17:25:01.888Z,20.20
2019-04-06T17:28:02.962Z,20.00
2019-04-06T17:31:08.613Z,19.90
2019-04-06T17:34:00.472Z,19.90
2019-04-06T17:36:50.560Z,19.70
2019-04-06T17:39:50.781Z,19.60
2019-04-06T17:42:37.177Z,19.60
2019-04-06T17:45:33.639Z,19.60
2019-04-06T17:48:24.011Z,19.40
2019-04-06T17:51:28.233Z,19.40
2019-04-06T17:54:29.138Z,19.40
2019-04-06T17:57:22.322Z,19.30
2019-04-06T18:00:21.680Z,19.10
2019-04-06T18:03:19.250Z,19.10
2019-04-06T18:06:20.908Z,19.00
2019-04-06T18:09:24.704Z,19.00
2019-04-06T18:12:06.759Z,18.90
2019-04-06T18:14:35.425Z,18.80
2019-04-06T18:17:05.080Z,18.80
2019-04-06T18:19:34.761Z,18.70
2019-04-06T18:22:04.101Z,18.70
2019-04-06T18:24:32.936Z,18.60
2019-04-06T18:27:01.715Z,18.60
2019-04-06T18:29:30.850Z,18.50
2019-04-06T18:32:14.890Z,18.40
2019-04-06T18:34:43.717Z,18.40
2019-04-06T18:37:31.564Z,18.30
2019-04-06T18:40:01.759Z,18.30
2019-04-06T18:42:30.849Z,18.30
2019-04-06T18:44:59.910Z,18.20
2019-04-06T18:47:28.710Z,18.20
2019-04-06T18:49:57.996Z,18.10
2019-04-06T18:52:27.220Z,18.10
2019-04-06T18:54:56.160Z,18.00
2019-04-06T18:57:25.333Z,18.00
2019-04-06T18:59:55.261Z,17.90
2019-04-06T19:02:23.924Z,17.90
2019-04-06T19:04:52.992Z,17.80
2019-04-06T19:07:22.141Z,17.80
2019-04-06T19:09:51.024Z,17.70
2019-04-06T19:12:21.133Z,17.60
2019-04-06T19:14:49.832Z,17.50
2019-04-06T19:17:18.792Z,17.50
2019-04-06T19:19:47.590Z,17.40
2019-04-06T19:22:16.267Z,17.40
2019-04-06T19:24:45.123Z,17.30
2019-04-06T19:27:13.868Z,17.30
2019-04-06T19:29:42.752Z,17.20
2019-04-06T19:32:11.704Z,17.20
2019-04-06T19:34:40.599Z,17.10
2019-04-06T19:37:10.373Z,17.10
2019-04-06T19:39:39.966Z,17.00
2019-04-06T19:42:09.262Z,17.00
2019-04-06T19:44:37.943Z,16.90
2019-04-06T19:47:06.690Z,16.90
2019-04-06T19:49:35.639Z,16.80
2019-04-06T19:52:04.474Z,16.80
2019-04-06T19:54:33.413Z,16.70
2019-04-06T19:57:02.201Z,16.70
2019-04-06T19:59:30.903Z,16.70
2019-04-06T20:01:59.826Z,16.70
2019-04-06T20:04:28.464Z,16.60
2019-04-06T20:06:57.457Z,16.60
2019-04-06T20:09:26.566Z,16.70
2019-04-06T20:12:04.122Z,16.60
2019-04-06T20:14:25.686Z,16.50
2019-04-06T20:16:54.392Z,16.50
2019-04-06T20:19:23.493Z,16.30
2019-04-06T20:21:53.003Z,16.30
2019-04-06T20:24:23.873Z,16.30
2019-04-06T20:26:52.619Z,16.20
2019-04-06T20:29:22.123Z,16.20
2019-04-06T20:31:50.924Z,16.20
2019-04-06T20:34:20.281Z,16.10
2019-04-06T20:36:49.082Z,16.10
2019-04-06T20:39:18.010Z,16.00
2019-04-06T20:41:46.660Z,16.00
2019-04-06T20:44:15.633Z,16.00
2019-04-06T20:46:44.300Z,15.90
2019-04-06T20:49:13.007Z,16.00
2019-04-06T20:51:42.270Z,16.00
2019-04-06T20:54:11.104Z,16.00
2019-04-06T20:56:39.852Z,16.00
2019-04-06T20:59:08.633Z,15.90
2019-04-06T21:01:37.321Z,15.90
2019-04-06T21:04:06.097Z,15.90
2019-04-06T21:06:34.779Z,16.00
2019-04-06T21:09:05.594Z,16.00
2019-04-06T21:11:34.274Z,15.90
2019-04-06T21:14:03.337Z,15.80
2019-04-06T21:16:32.108Z,15.80
2019-04-06T21:19:01.112Z,15.80
2019-04-06T21:21:30.307Z,15.80
2019-04-06T21:23:59.406Z,15.70
2019-04-06T21:26:28.145Z,15.70
2019-04-06T21:29:00.104Z,15.70
2019-04-06T21:31:29.054Z,15.60
2019-04-06T21:34:09.369Z,15.60
2019-04-06T21:36:28.326Z,15.60
2019-04-06T21:38:57.128Z,15.50
2019-04-06T21:41:27.770Z,15.50
2019-04-06T21:43:56.846Z,15.50
2019-04-06T21:46:26.209Z,15.50
2019-04-06T21:48:54.895Z,15.50
2019-04-06T21:51:24.130Z,15.40
2019-04-06T21:53:52.974Z,15.40
2019-04-06T21:56:22.448Z,15.40
2019-04-06T21:58:51.683Z,15.30
2019-04-06T22:01:20.812Z,15.30
2019-04-06T22:03:49.617Z,15.30
2019-04-06T22:06:18.464Z,15.30
2019-04-06T22:08:47.238Z,15.20
2019-04-06T22:11:16.469Z,15.20
2019-04-06T22:13:45.851Z,15.20
2019-04-06T22:16:14.576Z,15.20
2019-04-06T22:18:43.233Z,15.20
2019-04-06T22:21:12.509Z,15.10
2019-04-06T22:23:44.343Z,15.00
2019-04-06T22:26:11.726Z,15.00
2019-04-06T22:28:40.383Z,15.00
2019-04-06T22:31:09.169Z,14.90
2019-04-06T22:33:38.279Z,15.00
2019-04-06T22:36:07.694Z,15.00
2019-04-06T22:38:36.596Z,14.90
2019-04-06T22:41:05.704Z,14.80
2019-04-06T22:43:35.077Z,14.80
2019-04-06T22:46:04.319Z,14.80
2019-04-06T22:48:33.573Z,14.80
2019-04-06T22:51:02.372Z,14.80
2019-04-06T22:53:31.696Z,14.70
2019-04-06T22:56:00.761Z,14.70
2019-04-06T22:58:30.117Z,14.70
2019-04-06T23:01:03.569Z,14.70
2019-04-06T23:03:50.464Z,14.60
2019-04-06T23:06:25.370Z,14.70
2019-04-06T23:08:54.181Z,14.70
2019-04-06T23:11:22.818Z,14.60
2019-04-06T23:13:51.618Z,14.60
2019-04-06T23:16:20.696Z,14.70
2019-04-06T23:18:49.541Z,14.60
2019-04-06T23:21:18.180Z,14.60
2019-04-06T23:23:47.418Z,14.70
2019-04-06T23:26:16.198Z,14.60
2019-04-06T23:28:44.954Z,14.50
2019-04-06T23:31:14.721Z,14.40
2019-04-06T23:33:43.559Z,14.40
2019-04-06T23:36:12.280Z,14.40
2019-04-06T23:38:41.331Z,14.40
2019-04-06T23:41:10.470Z,14.40
2019-04-06T23:43:40.420Z,14.30
2019-04-06T23:46:09.792Z,14.30
2019-04-06T23:48:39.110Z,14.20
2019-04-06T23:51:07.987Z,14.20
2019-04-06T23:53:37.343Z,14.20
2019-04-06T23:56:06.257Z,14.10
2019-04-06T23:58:35.260Z,14.10
